• Join FlightAware (Why Join?)
  • Login
  • US Flag 
01:35PM EDT


 

Airport Tracker/Info


-or-


 

Live Flight TrackerFlight Track Log ✈ KAP17 ✈ 08-May-2013 ✈ KBOS - KLEB

Flight Track Log - Related Links

Times and Time Zones

All times are in EDT time to prevent confusion due to time zone crossing. See the KAP17 flight status page for this flight to view local times or setup timezone preferences in your user account.

Time Position Orientation Groundspeed Altitude Reporting Facility
EDT Latitude Longitude Course Direction KTS MPH feet Rate Location/Type
12:06PM 42.4000 -71.0167 324° Northwest 148 170 800  Level KA90
12:06PM 42.4333 -71.0333 340° North 146 168 1,500 780 Climbing KA90
12:07PM 42.4667 -71.0667 324° Northwest 143 165 2,300 780 Climbing KA90
12:08PM 42.5000 -71.0833 340° North 139 160 3,100 660 Climbing KA90
12:09PM 42.5333 -71.1167 324° Northwest 154 177 3,700 660 Climbing KA90
12:10PM 42.5667 -71.1500 324° Northwest 150 173 4,500 720 Climbing KA90
12:11PM 42.5074 -71.1037 340° North  Level FlightAware Approximate
12:12PM 42.6167 -71.1667 346° North 149 171 5,200  Level KA90
12:13PM 42.6500 -71.2000 324° Northwest 161 185 5,800 540 Climbing KA90
12:14PM 42.7000 -71.2333 334° Northwest 165 190 6,400 600 Climbing KA90
12:15PM 42.7333 -71.2667 324° Northwest 170 196 7,000 540 Climbing KA90
12:15PM 42.7667 -71.3000 324° Northwest 168 193 7,500 420 Climbing KA90
12:16PM 42.8000 -71.3500 312° West 173 199 7,900 180 Climbing KA90
12:17PM 42.8500 -71.4000 324° Northwest 193 222 7,900  Level KA90
12:18PM 42.8833 -71.4333 324° Northwest 190 219 8,000  Climbing KA90
12:19PM 42.9167 -71.4833 312° West 189 217 8,000 -60 Level KA90
12:20PM 42.9667 -71.5333 324° Northwest 190 219 7,900 -60 Descending KA90
12:21PM 43.0000 -71.5833 312° West 187 215 7,900  Level KA90
12:22PM 43.0500 -71.6167 334° Northwest 191 220 8,000  Climbing KA90
12:23PM 43.0750 -71.6642 306° West 197 227 8,000 -60 Level Boston Center
12:24PM 43.1192 -71.7147 320° Northwest 192 221 7,900  Descending Boston Center
12:25PM 43.1550 -71.7569 319° Northwest 185 213 8,000  Climbing Boston Center
12:26PM 43.1989 -71.8078 320° Northwest 185 213 7,900 -60 Descending Boston Center
12:27PM 43.2367 -71.8503 321° Northwest 185 213 7,900  Level Boston Center
12:28PM 43.2806 -71.9011 320° Northwest 185 213 7,900  Level Boston Center
12:29PM 43.3164 -71.9436 319° Northwest 185 213 7,900 -120 Level Boston Center
12:30PM 43.3644 -71.9889 326° Northwest 185 213 7,700 -360 Descending Boston Center
12:31PM 43.4144 -72.0228 334° Northwest 207 238 7,200 -480 Descending Boston Center
12:32PM 43.4647 -72.0597 332° Northwest 207 238 6,800 -540 Descending Boston Center
12:33PM 43.5106 -72.0967 330° Northwest 207 238 6,200 -660 Descending Boston Center
12:34PM 43.5608 -72.1306 334° Northwest 207 238 5,500 -660 Descending Boston Center
12:35PM 43.6067 -72.1647 332° Northwest 207 238 4,900 -300 Descending Boston Center
12:36PM 43.6506 -72.1961 333° Northwest 193 222 4,900  Level Boston Center
12:37PM 43.6861 -72.2275 327° Northwest 171 197 4,900 -300 Level Boston Center
12:38PM 43.7092 -72.2822 300° West 155 178 4,300 -540 Descending Boston Center
12:39PM 43.7403 -72.3394 307° West 166 191 3,900 -180 Descending Boston Center
12:41PM 43.6908 -72.3102 170° South  Level FlightAware Approximate
12:45PM 43.7675 -72.3394 180° South 156 180 3,400  Level Boston Center
12:47PM 43.8368 -72.3258 North  Level FlightAware Approximate
12:48PM 43.6261 -72.3042 180° South  Level Estimated
12:49PM 43.6261 -72.3042 180° South  Level Estimated
12:50PM 43.6261 -72.3042 180° South  Level Estimated
12:54PM 43.6261 -72.3042 180° South  Level Estimated